SAMR/AFA METAR and TAF weather

Enter ICAO airport designator
Station Type Date Time Source
SAMR METAR 2019/03/31 21:25 UTC NOAA

SAMR 312125Z 09015KT 3500 -TSRA SCT030CB SCT035 21/16 Q1015


Station Type Date Time Source
SAMR Decoded METAR 2019/03/31 21:25 UTC NOAA

San Rafael Aerodrome, Argentina (SAMR) 34-35S 068-24W 748M
Mar 31, 2019 - 05:25 PM EDT / 2019.03.31 2125 UTC
Wind: from the E (090 degrees) at 17 MPH (15 KT):0
Visibility: 2 mile(s):0
Sky conditions: partly cloudy
Weather: light rain with thunder; Cumulonimbus clouds observed
Temperature: 69 F (21 C)
Dew Point: 60 F (16 C)
Relative Humidity: 73%
Pressure (altimeter): 29.97 in. Hg (1015 hPa)
ob: SAMR 312125Z 09015KT 3500 -TSRA SCT030CB SCT035 21/16 Q1015
cycle: 21

Station Type Date Time Source
SAMR TAF 2019/04/18 06:27 UTC NOAA

TAF SAMR 180500Z 1806/1906 20005KT CAVOK TN10/1810Z TX27/1820Z
BECMG 1814/1816 05005KT

Example: see airport list